Sisseton, SD

1:50 PM CST on March 03, 2015 (GMT -0600)
Sisseton | Change Station
CLOSE
Current Station
Airport
Location: Sisseton,
Elevation: 1161 ft
Nearby Weather Stations
Active Advisory: Winter Weather Advisory Active Notice: Local Storm Report

Elev 1161 ft 45.67 °N, 96.99 °W | Updated 54 minutes ago

Overcast
Overcast
13 °F
Feels Like -8 °F
N
28
Wind Variable Wind from NNW
Gusts 39 mph

Today
High -- | Low -- °F
--% Chance of Precip.
Yesterday
High -- | Low -- °F
Precip. -- in
7:03 AM 6:17 PM
Waxing Gibbous, 97% visible
Pressure 29.99 in
Visibility -9999.0 miles
Clouds
Windchill -8 °F
Dew Point 7 °F
Humidity 77%
Rainfall 0.07 in
Snow Depth Not available.
UV Not available.
Pollen .10 out of 12
Air Quality Not available.
Flu Activity Not available.
METAR K8D3 031856Z AUTO 34024G34KT M11/M14 A2990 RMK AO1 PK WND 34036/1803 SLP156 T11061139

More Conditions Fewer Conditions

Pressure 29.99 in
Visibility -9999.0 miles
Clouds
Windchill -8 °F
Dew Point 7 °F
Humidity 77%
Rainfall 0.07 in
Snow Depth Not available.
UV Not available.
Pollen .10 out of 12
Air Quality Not available.
Flu Activity Not available.
METAR K8D3 031856Z AUTO 34024G34KT M11/M14 A2990 RMK AO1 PK WND 34036/1803 SLP156 T11061139

More Conditions Fewer Conditions

10-Day Weather Forecast

Almanac

Astronomy

Mar. 03, 2015 Rise Set
Actual Time
Civil Twilight
Nautical Twilight
Astronomical Twilight
Moon
Length of Visible Light
Length of Day
Tomorrow will be .
, % of the Moon is Illuminated

Today's Extremes

State Highs State Lows

Community

WunderPhotos

Upload Photos

1,802,217 photos uploaded!

WunderBlogs® & News

Nearby

Air Quality

  Air Quality AQ Index Pollutant
Not available.

Snow Depth

Station Depth Elevation

Earthquake Activity

City Distance Mag. Time & Date
Minimum magnitude displayed is 2.5.

Coastal Water Temperatures

Place Temperature

Nearby Weather Stations

Winter Weather Advisory
Statement as of 12:05 PM CST on March 03, 2015

... Winter Weather Advisory in effect until 6 PM CST this
evening...
... Blizzard Warning is cancelled...

The National Weather Service in Aberdeen has issued a Winter
Weather Advisory for blowing snow... which is in effect until 6 PM
CST this evening. The Blizzard Warning has been cancelled.

* Timing... blowing snow will persist through the afternoon.

* Winds/visibility... north to northwest winds of 25 to 35 mph with
gusts to 45 mph may produce visibility of one mile or less in
blowing snow... especially in open areas.

Precautionary/preparedness actions...

A Winter Weather Advisory for snow and blowing snow means that
visibility will be limited due to a combination of falling and
blowing snow. Use caution when traveling... especially in open
areas.

A Winter Weather Advisory for blowing snow means that visibilities
will be limited due to strong winds blowing snow around. Use
caution when traveling... especially in open areas.